sensor_id;sensor_type;location;lat;lon;timestamp;P1;durP1;ratioP1;P2;durP2;ratioP2
54787;SDS011;59598;48.112;16.280;2022-09-09T00:02:28;1.08;;;0.90;;
54787;SDS011;59598;48.112;16.280;2022-09-09T00:05:13;1.08;;;0.98;;
54787;SDS011;59598;48.112;16.280;2022-09-09T00:07:58;1.05;;;1.02;;
54787;SDS011;59598;48.112;16.280;2022-09-09T00:10:36;2.45;;;1.33;;
54787;SDS011;59598;48.112;16.280;2022-09-09T00:16:02;1.25;;;0.80;;
54787;SDS011;59598;48.112;16.280;2022-09-09T00:21:23;2.55;;;1.40;;
54787;SDS011;59598;48.112;16.280;2022-09-09T00:24:10;1.20;;;1.10;;
54787;SDS011;59598;48.112;16.280;2022-09-09T00:26:55;1.00;;;1.00;;
54787;SDS011;59598;48.112;16.280;2022-09-09T00:30:00;0.90;;;0.90;;
54787;SDS011;59598;48.112;16.280;2022-09-09T00:33:19;0.80;;;0.80;;
54787;SDS011;59598;48.112;16.280;2022-09-09T00:35:55;0.95;;;0.88;;
54787;SDS011;59598;48.112;16.280;2022-09-09T00:38:33;0.90;;;0.73;;
54787;SDS011;59598;48.112;16.280;2022-09-09T00:41:14;1.20;;;1.10;;
54787;SDS011;59598;48.112;16.280;2022-09-09T00:44:00;1.70;;;1.15;;
54787;SDS011;59598;48.112;16.280;2022-09-09T01:13:58;1.52;;;1.08;;
54787;SDS011;59598;48.112;16.280;2022-09-09T01:16:58;1.50;;;1.10;;
54787;SDS011;59598;48.112;16.280;2022-09-09T01:28:52;2.17;;;1.38;;
54787;SDS011;59598;48.112;16.280;2022-09-09T01:31:32;1.13;;;1.10;;
54787;SDS011;59598;48.112;16.280;2022-09-09T01:34:16;4.33;;;1.17;;
54787;SDS011;59598;48.112;16.280;2022-09-09T01:39:40;1.42;;;0.98;;
54787;SDS011;59598;48.112;16.280;2022-09-09T01:42:14;0.85;;;0.85;;
54787;SDS011;59598;48.112;16.280;2022-09-09T01:44:49;0.90;;;0.90;;
54787;SDS011;59598;48.112;16.280;2022-09-09T01:47:25;2.08;;;1.10;;
54787;SDS011;59598;48.112;16.280;2022-09-09T01:49:59;0.90;;;0.90;;
54787;SDS011;59598;48.112;16.280;2022-09-09T01:52:34;0.75;;;0.75;;
54787;SDS011;59598;48.112;16.280;2022-09-09T01:55:12;2.38;;;0.90;;
54787;SDS011;59598;48.112;16.280;2022-09-09T01:58:10;1.15;;;1.05;;
54787;SDS011;59598;48.112;16.280;2022-09-09T02:01:06;1.00;;;1.00;;
54787;SDS011;59598;48.112;16.280;2022-09-09T02:03:53;1.15;;;0.82;;
54787;SDS011;59598;48.112;16.280;2022-09-09T02:06:33;4.25;;;0.98;;
54787;SDS011;59598;48.112;16.280;2022-09-09T02:09:11;2.03;;;1.30;;
54787;SDS011;59598;48.112;16.280;2022-09-09T02:11:47;0.90;;;0.90;;
54787;SDS011;59598;48.112;16.280;2022-09-09T02:14:39;1.00;;;1.00;;
54787;SDS011;59598;48.112;16.280;2022-09-09T02:17:26;1.10;;;1.10;;
54787;SDS011;59598;48.112;16.280;2022-09-09T02:20:08;1.33;;;1.15;;
54787;SDS011;59598;48.112;16.280;2022-09-09T02:22:47;1.00;;;1.00;;
54787;SDS011;59598;48.112;16.280;2022-09-09T02:25:24;1.38;;;1.27;;
54787;SDS011;59598;48.112;16.280;2022-09-09T02:28:00;1.73;;;1.00;;
54787;SDS011;59598;48.112;16.280;2022-09-09T02:30:37;0.88;;;0.88;;
54787;SDS011;59598;48.112;16.280;2022-09-09T02:33:15;0.90;;;0.90;;
54787;SDS011;59598;48.112;16.280;2022-09-09T02:35:48;1.00;;;1.00;;
54787;SDS011;59598;48.112;16.280;2022-09-09T02:38:25;1.83;;;0.90;;
54787;SDS011;59598;48.112;16.280;2022-09-09T02:40:59;0.85;;;0.85;;
54787;SDS011;59598;48.112;16.280;2022-09-09T02:43:33;2.85;;;1.10;;
54787;SDS011;59598;48.112;16.280;2022-09-09T02:48:55;1.20;;;1.10;;
54787;SDS011;59598;48.112;16.280;2022-09-09T02:51:40;1.40;;;1.30;;
54787;SDS011;59598;48.112;16.280;2022-09-09T02:57:23;1.30;;;1.20;;
54787;SDS011;59598;48.112;16.280;2022-09-09T03:00:04;1.17;;;1.10;;
54787;SDS011;59598;48.112;16.280;2022-09-09T03:02:43;2.08;;;1.20;;
54787;SDS011;59598;48.112;16.280;2022-09-09T03:05:16;1.88;;;1.30;;
54787;SDS011;59598;48.112;16.280;2022-09-09T03:07:51;1.30;;;1.20;;
54787;SDS011;59598;48.112;16.280;2022-09-09T03:10:31;1.42;;;1.33;;
54787;SDS011;59598;48.112;16.280;2022-09-09T03:13:05;1.23;;;1.13;;
54787;SDS011;59598;48.112;16.280;2022-09-09T03:15:40;1.77;;;1.20;;
54787;SDS011;59598;48.112;16.280;2022-09-09T03:18:14;1.45;;;1.25;;
54787;SDS011;59598;48.112;16.280;2022-09-09T03:20:47;1.40;;;1.30;;
54787;SDS011;59598;48.112;16.280;2022-09-09T03:23:22;3.00;;;1.50;;
54787;SDS011;59598;48.112;16.280;2022-09-09T03:25:59;1.38;;;1.20;;
54787;SDS011;59598;48.112;16.280;2022-09-09T03:28:33;1.45;;;1.35;;
54787;SDS011;59598;48.112;16.280;2022-09-09T03:31:06;3.67;;;1.17;;
54787;SDS011;59598;48.112;16.280;2022-09-09T03:33:41;1.25;;;1.15;;
54787;SDS011;59598;48.112;16.280;2022-09-09T03:36:18;1.17;;;1.08;;
54787;SDS011;59598;48.112;16.280;2022-09-09T03:38:50;1.33;;;1.13;;
54787;SDS011;59598;48.112;16.280;2022-09-09T03:41:24;1.17;;;1.10;;
54787;SDS011;59598;48.112;16.280;2022-09-09T03:44:01;1.42;;;1.08;;
54787;SDS011;59598;48.112;16.280;2022-09-09T03:46:35;2.63;;;1.40;;
54787;SDS011;59598;48.112;16.280;2022-09-09T03:49:17;1.60;;;1.10;;
54787;SDS011;59598;48.112;16.280;2022-09-09T03:51:52;1.70;;;1.42;;
54787;SDS011;59598;48.112;16.280;2022-09-09T03:54:24;1.00;;;1.00;;
54787;SDS011;59598;48.112;16.280;2022-09-09T03:56:59;1.30;;;1.20;;
54787;SDS011;59598;48.112;16.280;2022-09-09T03:59:33;1.13;;;1.08;;
54787;SDS011;59598;48.112;16.280;2022-09-09T04:02:11;2.17;;;0.98;;
54787;SDS011;59598;48.112;16.280;2022-09-09T04:07:19;1.10;;;1.10;;
54787;SDS011;59598;48.112;16.280;2022-09-09T04:09:50;1.10;;;1.10;;
54787;SDS011;59598;48.112;16.280;2022-09-09T04:12:25;0.88;;;0.80;;
54787;SDS011;59598;48.112;16.280;2022-09-09T04:14:59;1.45;;;1.10;;
54787;SDS011;59598;48.112;16.280;2022-09-09T04:17:38;1.30;;;1.20;;
54787;SDS011;59598;48.112;16.280;2022-09-09T04:20:15;1.50;;;1.00;;
54787;SDS011;59598;48.112;16.280;2022-09-09T04:25:26;1.20;;;1.10;;
54787;SDS011;59598;48.112;16.280;2022-09-09T04:27:58;1.50;;;1.40;;
54787;SDS011;59598;48.112;16.280;2022-09-09T04:30:31;2.83;;;1.13;;
54787;SDS011;59598;48.112;16.280;2022-09-09T04:33:06;1.30;;;1.17;;
54787;SDS011;59598;48.112;16.280;2022-09-09T04:35:38;1.50;;;1.40;;
54787;SDS011;59598;48.112;16.280;2022-09-09T04:38:17;1.67;;;1.58;;
54787;SDS011;59598;48.112;16.280;2022-09-09T04:40:53;1.33;;;1.23;;
54787;SDS011;59598;48.112;16.280;2022-09-09T04:43:24;2.60;;;1.35;;
54787;SDS011;59598;48.112;16.280;2022-09-09T04:46:01;1.73;;;1.30;;
54787;SDS011;59598;48.112;16.280;2022-09-09T04:48:33;1.20;;;1.10;;
54787;SDS011;59598;48.112;16.280;2022-09-09T04:51:08;1.50;;;1.40;;
54787;SDS011;59598;48.112;16.280;2022-09-09T04:53:50;1.85;;;1.10;;
54787;SDS011;59598;48.112;16.280;2022-09-09T04:56:24;1.05;;;1.05;;
54787;SDS011;59598;48.112;16.280;2022-09-09T04:58:58;1.10;;;1.08;;
54787;SDS011;59598;48.112;16.280;2022-09-09T05:01:30;3.50;;;1.20;;
54787;SDS011;59598;48.112;16.280;2022-09-09T05:04:04;1.67;;;1.40;;
54787;SDS011;59598;48.112;16.280;2022-09-09T05:06:36;1.63;;;1.45;;
54787;SDS011;59598;48.112;16.280;2022-09-09T05:11:46;1.33;;;1.25;;
54787;SDS011;59598;48.112;16.280;2022-09-09T05:14:18;1.88;;;1.30;;
54787;SDS011;59598;48.112;16.280;2022-09-09T05:16:50;1.23;;;1.13;;
54787;SDS011;59598;48.112;16.280;2022-09-09T05:19:26;1.52;;;1.42;;
54787;SDS011;59598;48.112;16.280;2022-09-09T05:21:57;1.30;;;1.20;;
54787;SDS011;59598;48.112;16.280;2022-09-09T05:24:29;3.33;;;1.40;;
54787;SDS011;59598;48.112;16.280;2022-09-09T05:27:06;4.28;;;1.45;;
54787;SDS011;59598;48.112;16.280;2022-09-09T05:29:42;1.55;;;1.02;;
54787;SDS011;59598;48.112;16.280;2022-09-09T05:32:19;1.48;;;1.38;;
54787;SDS011;59598;48.112;16.280;2022-09-09T05:34:50;1.83;;;1.38;;
54787;SDS011;59598;48.112;16.280;2022-09-09T05:37:24;2.88;;;1.60;;
54787;SDS011;59598;48.112;16.280;2022-09-09T05:39:58;1.45;;;1.15;;
54787;SDS011;59598;48.112;16.280;2022-09-09T05:42:31;4.13;;;1.50;;
54787;SDS011;59598;48.112;16.280;2022-09-09T05:45:05;1.50;;;1.40;;
54787;SDS011;59598;48.112;16.280;2022-09-09T05:47:40;1.40;;;1.30;;
54787;SDS011;59598;48.112;16.280;2022-09-09T05:50:11;1.30;;;1.10;;
54787;SDS011;59598;48.112;16.280;2022-09-09T05:52:46;1.27;;;1.17;;
54787;SDS011;59598;48.112;16.280;2022-09-09T05:55:23;1.40;;;1.30;;
54787;SDS011;59598;48.112;16.280;2022-09-09T05:57:56;1.20;;;1.10;;
54787;SDS011;59598;48.112;16.280;2022-09-09T06:00:30;1.45;;;1.17;;
54787;SDS011;59598;48.112;16.280;2022-09-09T06:03:03;1.75;;;1.30;;
54787;SDS011;59598;48.112;16.280;2022-09-09T06:05:36;1.10;;;1.00;;
54787;SDS011;59598;48.112;16.280;2022-09-09T06:08:12;1.50;;;1.20;;
54787;SDS011;59598;48.112;16.280;2022-09-09T06:10:44;1.42;;;1.30;;
54787;SDS011;59598;48.112;16.280;2022-09-09T06:13:16;1.38;;;1.27;;
54787;SDS011;59598;48.112;16.280;2022-09-09T06:15:51;1.20;;;1.10;;
54787;SDS011;59598;48.112;16.280;2022-09-09T06:18:24;1.73;;;1.35;;
54787;SDS011;59598;48.112;16.280;2022-09-09T06:21:04;1.55;;;1.45;;
54787;SDS011;59598;48.112;16.280;2022-09-09T06:23:39;2.45;;;1.50;;
54787;SDS011;59598;48.112;16.280;2022-09-09T06:26:16;10.93;;;2.28;;
54787;SDS011;59598;48.112;16.280;2022-09-09T06:28:52;1.58;;;1.25;;
54787;SDS011;59598;48.112;16.280;2022-09-09T06:31:26;1.30;;;1.20;;
54787;SDS011;59598;48.112;16.280;2022-09-09T06:34:05;2.03;;;1.10;;
54787;SDS011;59598;48.112;16.280;2022-09-09T06:36:41;2.78;;;1.42;;
54787;SDS011;59598;48.112;16.280;2022-09-09T06:39:13;1.98;;;1.20;;
54787;SDS011;59598;48.112;16.280;2022-09-09T06:41:46;2.22;;;1.20;;
54787;SDS011;59598;48.112;16.280;2022-09-09T06:44:17;1.65;;;1.33;;
54787;SDS011;59598;48.112;16.280;2022-09-09T06:46:49;1.33;;;1.17;;
54787;SDS011;59598;48.112;16.280;2022-09-09T06:49:24;1.60;;;1.50;;
54787;SDS011;59598;48.112;16.280;2022-09-09T06:51:57;2.55;;;1.17;;
54787;SDS011;59598;48.112;16.280;2022-09-09T06:54:29;1.30;;;1.20;;
54787;SDS011;59598;48.112;16.280;2022-09-09T06:57:00;1.30;;;1.20;;
54787;SDS011;59598;48.112;16.280;2022-09-09T06:59:37;1.15;;;1.05;;
54787;SDS011;59598;48.112;16.280;2022-09-09T07:02:11;3.25;;;1.23;;
54787;SDS011;59598;48.112;16.280;2022-09-09T07:04:42;1.00;;;1.00;;
54787;SDS011;59598;48.112;16.280;2022-09-09T07:07:17;2.28;;;1.33;;
54787;SDS011;59598;48.112;16.280;2022-09-09T07:09:50;1.40;;;1.13;;
54787;SDS011;59598;48.112;16.280;2022-09-09T07:12:27;1.15;;;1.05;;
54787;SDS011;59598;48.112;16.280;2022-09-09T07:15:01;1.25;;;1.23;;
54787;SDS011;59598;48.112;16.280;2022-09-09T07:20:10;1.38;;;1.27;;
54787;SDS011;59598;48.112;16.280;2022-09-09T07:22:43;1.20;;;1.10;;
54787;SDS011;59598;48.112;16.280;2022-09-09T07:25:14;2.10;;;1.20;;
54787;SDS011;59598;48.112;16.280;2022-09-09T07:27:48;1.25;;;1.00;;
54787;SDS011;59598;48.112;16.280;2022-09-09T07:30:27;1.05;;;0.95;;
54787;SDS011;59598;48.112;16.280;2022-09-09T07:33:01;1.23;;;0.90;;
54787;SDS011;59598;48.112;16.280;2022-09-09T07:35:36;1.35;;;1.20;;
54787;SDS011;59598;48.112;16.280;2022-09-09T07:38:11;1.02;;;1.00;;
54787;SDS011;59598;48.112;16.280;2022-09-09T07:40:42;1.17;;;1.08;;
54787;SDS011;59598;48.112;16.280;2022-09-09T07:43:14;4.05;;;1.30;;
54787;SDS011;59598;48.112;16.280;2022-09-09T07:45:48;3.70;;;1.30;;
54787;SDS011;59598;48.112;16.280;2022-09-09T07:48:29;3.80;;;1.40;;
54787;SDS011;59598;48.112;16.280;2022-09-09T07:53:41;1.33;;;1.23;;
54787;SDS011;59598;48.112;16.280;2022-09-09T07:56:17;2.05;;;1.88;;
54787;SDS011;59598;48.112;16.280;2022-09-09T07:58:53;2.42;;;1.27;;
54787;SDS011;59598;48.112;16.280;2022-09-09T08:01:29;1.65;;;1.20;;
54787;SDS011;59598;48.112;16.280;2022-09-09T08:04:12;1.20;;;1.10;;
54787;SDS011;59598;48.112;16.280;2022-09-09T08:06:48;1.20;;;1.00;;
54787;SDS011;59598;48.112;16.280;2022-09-09T08:09:25;2.45;;;1.00;;
54787;SDS011;59598;48.112;16.280;2022-09-09T08:11:59;1.30;;;1.08;;
54787;SDS011;59598;48.112;16.280;2022-09-09T08:14:33;1.23;;;0.85;;
54787;SDS011;59598;48.112;16.280;2022-09-09T08:17:10;3.47;;;1.10;;
54787;SDS011;59598;48.112;16.280;2022-09-09T08:19:46;2.28;;;0.80;;
54787;SDS011;59598;48.112;16.280;2022-09-09T08:22:18;1.42;;;1.00;;
54787;SDS011;59598;48.112;16.280;2022-09-09T08:24:49;1.40;;;0.70;;
54787;SDS011;59598;48.112;16.280;2022-09-09T08:29:56;2.70;;;0.80;;
54787;SDS011;59598;48.112;16.280;2022-09-09T08:32:27;1.33;;;0.90;;
54787;SDS011;59598;48.112;16.280;2022-09-09T08:34:58;2.10;;;0.85;;
54787;SDS011;59598;48.112;16.280;2022-09-09T08:37:30;1.45;;;1.20;;
54787;SDS011;59598;48.112;16.280;2022-09-09T08:40:02;1.38;;;1.13;;
54787;SDS011;59598;48.112;16.280;2022-09-09T08:42:41;1.30;;;1.20;;
54787;SDS011;59598;48.112;16.280;2022-09-09T08:48:39;1.98;;;0.90;;
54787;SDS011;59598;48.112;16.280;2022-09-09T08:51:50;1.40;;;0.70;;
54787;SDS011;59598;48.112;16.280;2022-09-09T08:54:28;1.02;;;0.90;;
54787;SDS011;59598;48.112;16.280;2022-09-09T08:57:09;2.25;;;1.02;;
54787;SDS011;59598;48.112;16.280;2022-09-09T08:59:50;2.92;;;1.02;;
54787;SDS011;59598;48.112;16.280;2022-09-09T09:05:33;0.75;;;0.75;;
54787;SDS011;59598;48.112;16.280;2022-09-09T09:08:52;1.13;;;0.80;;
54787;SDS011;59598;48.112;16.280;2022-09-09T09:11:36;1.23;;;1.13;;
54787;SDS011;59598;48.112;16.280;2022-09-09T09:14:20;1.52;;;0.80;;
54787;SDS011;59598;48.112;16.280;2022-09-09T09:19:51;0.70;;;0.70;;
54787;SDS011;59598;48.112;16.280;2022-09-09T09:22:23;1.45;;;0.70;;
54787;SDS011;59598;48.112;16.280;2022-09-09T09:28:18;1.67;;;0.90;;
54787;SDS011;59598;48.112;16.280;2022-09-09T09:30:58;1.52;;;1.00;;
54787;SDS011;59598;48.112;16.280;2022-09-09T09:33:52;0.60;;;0.57;;
54787;SDS011;59598;48.112;16.280;2022-09-09T09:36:33;1.92;;;0.70;;
54787;SDS011;59598;48.112;16.280;2022-09-09T09:39:25;1.67;;;0.73;;
54787;SDS011;59598;48.112;16.280;2022-09-09T09:42:07;1.30;;;0.70;;
54787;SDS011;59598;48.112;16.280;2022-09-09T09:44:47;0.77;;;0.60;;
54787;SDS011;59598;48.112;16.280;2022-09-09T09:47:21;1.15;;;0.75;;
54787;SDS011;59598;48.112;16.280;2022-09-09T09:50:00;0.80;;;0.80;;
54787;SDS011;59598;48.112;16.280;2022-09-09T09:52:33;0.93;;;0.60;;
54787;SDS011;59598;48.112;16.280;2022-09-09T09:55:11;1.17;;;0.82;;
54787;SDS011;59598;48.112;16.280;2022-09-09T09:57:44;0.50;;;0.50;;
54787;SDS011;59598;48.112;16.280;2022-09-09T10:02:53;3.35;;;0.95;;
54787;SDS011;59598;48.112;16.280;2022-09-09T10:05:25;2.55;;;0.55;;
54787;SDS011;59598;48.112;16.280;2022-09-09T10:14:05;1.27;;;0.70;;
54787;SDS011;59598;48.112;16.280;2022-09-09T10:29:26;1.95;;;0.85;;
54787;SDS011;59598;48.112;16.280;2022-09-09T10:32:19;0.95;;;0.70;;
54787;SDS011;59598;48.112;16.280;2022-09-09T10:38:11;0.63;;;0.63;;
54787;SDS011;59598;48.112;16.280;2022-09-09T10:55:59;1.00;;;0.77;;
54787;SDS011;59598;48.112;16.280;2022-09-09T10:58:48;0.85;;;0.75;;
54787;SDS011;59598;48.112;16.280;2022-09-09T11:01:30;0.50;;;0.50;;
54787;SDS011;59598;48.112;16.280;2022-09-09T11:04:25;0.95;;;0.68;;
54787;SDS011;59598;48.112;16.280;2022-09-09T11:07:13;0.93;;;0.80;;
54787;SDS011;59598;48.112;16.280;2022-09-09T11:10:17;1.00;;;0.77;;
54787;SDS011;59598;48.112;16.280;2022-09-09T11:13:38;0.70;;;0.70;;
54787;SDS011;59598;48.112;16.280;2022-09-09T11:21:48;4.20;;;0.80;;
54787;SDS011;59598;48.112;16.280;2022-09-09T11:24:31;1.50;;;0.80;;
54787;SDS011;59598;48.112;16.280;2022-09-09T11:44:43;1.15;;;0.70;;
54787;SDS011;59598;48.112;16.280;2022-09-09T11:47:24;2.05;;;0.70;;
54787;SDS011;59598;48.112;16.280;2022-09-09T11:50:34;0.70;;;0.70;;
54787;SDS011;59598;48.112;16.280;2022-09-09T11:55:44;6.28;;;0.93;;
54787;SDS011;59598;48.112;16.280;2022-09-09T11:58:53;1.00;;;0.70;;
54787;SDS011;59598;48.112;16.280;2022-09-09T12:04:16;2.20;;;0.70;;
54787;SDS011;59598;48.112;16.280;2022-09-09T12:07:04;2.08;;;0.65;;
54787;SDS011;59598;48.112;16.280;2022-09-09T12:10:22;1.05;;;0.80;;
54787;SDS011;59598;48.112;16.280;2022-09-09T12:13:09;0.75;;;0.73;;
54787;SDS011;59598;48.112;16.280;2022-09-09T12:15:53;1.02;;;0.85;;
54787;SDS011;59598;48.112;16.280;2022-09-09T12:18:38;0.80;;;0.80;;
54787;SDS011;59598;48.112;16.280;2022-09-09T12:23:55;1.50;;;0.60;;
54787;SDS011;59598;48.112;16.280;2022-09-09T12:26:47;0.63;;;0.60;;
54787;SDS011;59598;48.112;16.280;2022-09-09T12:29:47;0.70;;;0.70;;
54787;SDS011;59598;48.112;16.280;2022-09-09T12:32:41;0.77;;;0.60;;
54787;SDS011;59598;48.112;16.280;2022-09-09T12:35:22;0.52;;;0.52;;
54787;SDS011;59598;48.112;16.280;2022-09-09T12:38:02;0.50;;;0.50;;
54787;SDS011;59598;48.112;16.280;2022-09-09T12:40:39;0.60;;;0.52;;
54787;SDS011;59598;48.112;16.280;2022-09-09T12:43:21;1.10;;;0.70;;
54787;SDS011;59598;48.112;16.280;2022-09-09T12:46:07;1.85;;;0.60;;
54787;SDS011;59598;48.112;16.280;2022-09-09T12:48:57;1.27;;;0.77;;
54787;SDS011;59598;48.112;16.280;2022-09-09T12:51:31;2.70;;;0.93;;
54787;SDS011;59598;48.112;16.280;2022-09-09T12:54:06;0.47;;;0.47;;
54787;SDS011;59598;48.112;16.280;2022-09-09T12:56:47;2.08;;;0.75;;
54787;SDS011;59598;48.112;16.280;2022-09-09T12:59:41;1.85;;;0.60;;
54787;SDS011;59598;48.112;16.280;2022-09-09T13:02:17;3.13;;;0.60;;
54787;SDS011;59598;48.112;16.280;2022-09-09T13:04:50;0.60;;;0.60;;
54787;SDS011;59598;48.112;16.280;2022-09-09T13:07:25;0.50;;;0.50;;
54787;SDS011;59598;48.112;16.280;2022-09-09T13:10:03;0.60;;;0.60;;
54787;SDS011;59598;48.112;16.280;2022-09-09T13:12:35;0.60;;;0.60;;
54787;SDS011;59598;48.112;16.280;2022-09-09T13:15:11;0.75;;;0.70;;
54787;SDS011;59598;48.112;16.280;2022-09-09T13:17:54;0.60;;;0.60;;
54787;SDS011;59598;48.112;16.280;2022-09-09T13:20:34;0.80;;;0.80;;
54787;SDS011;59598;48.112;16.280;2022-09-09T13:23:05;0.57;;;0.57;;
54787;SDS011;59598;48.112;16.280;2022-09-09T13:25:53;2.22;;;0.80;;
54787;SDS011;59598;48.112;16.280;2022-09-09T13:29:08;1.38;;;0.60;;
54787;SDS011;59598;48.112;16.280;2022-09-09T13:32:36;2.00;;;0.65;;
54787;SDS011;59598;48.112;16.280;2022-09-09T13:34:58;0.95;;;0.90;;
54787;SDS011;59598;48.112;16.280;2022-09-09T13:37:38;0.82;;;0.60;;
54787;SDS011;59598;48.112;16.280;2022-09-09T13:40:18;1.25;;;1.00;;
54787;SDS011;59598;48.112;16.280;2022-09-09T13:42:54;1.55;;;0.90;;
54787;SDS011;59598;48.112;16.280;2022-09-09T13:45:31;2.55;;;0.75;;
54787;SDS011;59598;48.112;16.280;2022-09-09T13:48:08;0.85;;;0.80;;
54787;SDS011;59598;48.112;16.280;2022-09-09T13:50:41;2.25;;;1.02;;
54787;SDS011;59598;48.112;16.280;2022-09-09T13:53:15;1.10;;;0.98;;
54787;SDS011;59598;48.112;16.280;2022-09-09T13:55:50;2.75;;;0.80;;
54787;SDS011;59598;48.112;16.280;2022-09-09T13:58:22;1.20;;;0.95;;
54787;SDS011;59598;48.112;16.280;2022-09-09T14:00:55;1.80;;;0.98;;
54787;SDS011;59598;48.112;16.280;2022-09-09T14:03:32;0.80;;;0.80;;
54787;SDS011;59598;48.112;16.280;2022-09-09T14:06:06;0.70;;;0.70;;
54787;SDS011;59598;48.112;16.280;2022-09-09T14:08:44;0.70;;;0.70;;
54787;SDS011;59598;48.112;16.280;2022-09-09T14:11:19;1.08;;;0.80;;
54787;SDS011;59598;48.112;16.280;2022-09-09T14:13:58;1.98;;;1.00;;
54787;SDS011;59598;48.112;16.280;2022-09-09T14:16:31;1.05;;;0.90;;
54787;SDS011;59598;48.112;16.280;2022-09-09T14:19:03;0.90;;;0.82;;
54787;SDS011;59598;48.112;16.280;2022-09-09T14:21:36;1.70;;;0.77;;
54787;SDS011;59598;48.112;16.280;2022-09-09T14:24:07;0.80;;;0.80;;
54787;SDS011;59598;48.112;16.280;2022-09-09T14:26:39;0.60;;;0.60;;
54787;SDS011;59598;48.112;16.280;2022-09-09T14:29:13;2.13;;;1.23;;
54787;SDS011;59598;48.112;16.280;2022-09-09T14:31:44;0.90;;;0.90;;
54787;SDS011;59598;48.112;16.280;2022-09-09T14:34:16;1.17;;;0.75;;
54787;SDS011;59598;48.112;16.280;2022-09-09T14:36:53;0.90;;;0.90;;
54787;SDS011;59598;48.112;16.280;2022-09-09T14:42:01;0.80;;;0.80;;
54787;SDS011;59598;48.112;16.280;2022-09-09T14:44:38;0.90;;;0.80;;
54787;SDS011;59598;48.112;16.280;2022-09-09T14:47:15;0.80;;;0.80;;
54787;SDS011;59598;48.112;16.280;2022-09-09T14:49:52;1.05;;;0.73;;
54787;SDS011;59598;48.112;16.280;2022-09-09T14:52:26;0.55;;;0.55;;
54787;SDS011;59598;48.112;16.280;2022-09-09T14:57:37;0.88;;;0.65;;
54787;SDS011;59598;48.112;16.280;2022-09-09T15:02:46;0.63;;;0.63;;
54787;SDS011;59598;48.112;16.280;2022-09-09T15:05:23;0.50;;;0.50;;
54787;SDS011;59598;48.112;16.280;2022-09-09T15:07:58;0.50;;;0.50;;
54787;SDS011;59598;48.112;16.280;2022-09-09T15:10:30;0.68;;;0.68;;
54787;SDS011;59598;48.112;16.280;2022-09-09T15:13:04;1.23;;;1.13;;
54787;SDS011;59598;48.112;16.280;2022-09-09T15:15:35;0.90;;;0.90;;
54787;SDS011;59598;48.112;16.280;2022-09-09T15:18:11;1.20;;;0.75;;
54787;SDS011;59598;48.112;16.280;2022-09-09T15:20:46;0.68;;;0.60;;
54787;SDS011;59598;48.112;16.280;2022-09-09T15:23:18;0.57;;;0.57;;
54787;SDS011;59598;48.112;16.280;2022-09-09T15:26:00;0.60;;;0.60;;
54787;SDS011;59598;48.112;16.280;2022-09-09T15:31:18;0.60;;;0.60;;
54787;SDS011;59598;48.112;16.280;2022-09-09T15:34:03;0.50;;;0.50;;
54787;SDS011;59598;48.112;16.280;2022-09-09T15:36:39;0.73;;;0.70;;
54787;SDS011;59598;48.112;16.280;2022-09-09T15:39:17;0.50;;;0.50;;
54787;SDS011;59598;48.112;16.280;2022-09-09T15:41:54;0.60;;;0.60;;
54787;SDS011;59598;48.112;16.280;2022-09-09T15:44:28;0.70;;;0.70;;
54787;SDS011;59598;48.112;16.280;2022-09-09T15:47:01;0.67;;;0.60;;
54787;SDS011;59598;48.112;16.280;2022-09-09T15:49:35;0.68;;;0.68;;
54787;SDS011;59598;48.112;16.280;2022-09-09T15:52:08;2.55;;;0.70;;
54787;SDS011;59598;48.112;16.280;2022-09-09T15:54:45;0.70;;;0.70;;
54787;SDS011;59598;48.112;16.280;2022-09-09T15:57:17;0.77;;;0.77;;
54787;SDS011;59598;48.112;16.280;2022-09-09T15:59:48;1.15;;;0.90;;
54787;SDS011;59598;48.112;16.280;2022-09-09T16:02:20;2.35;;;0.60;;
54787;SDS011;59598;48.112;16.280;2022-09-09T16:04:52;0.82;;;0.82;;
54787;SDS011;59598;48.112;16.280;2022-09-09T16:07:24;0.80;;;0.70;;
54787;SDS011;59598;48.112;16.280;2022-09-09T16:12:29;0.82;;;0.82;;
54787;SDS011;59598;48.112;16.280;2022-09-09T16:17:36;1.10;;;1.00;;
54787;SDS011;59598;48.112;16.280;2022-09-09T16:20:08;1.30;;;0.90;;
54787;SDS011;59598;48.112;16.280;2022-09-09T16:22:47;1.10;;;1.00;;
54787;SDS011;59598;48.112;16.280;2022-09-09T16:25:19;1.37;;;1.10;;
54787;SDS011;59598;48.112;16.280;2022-09-09T16:27:51;2.35;;;1.20;;
54787;SDS011;59598;48.112;16.280;2022-09-09T16:30:23;1.00;;;1.00;;
54787;SDS011;59598;48.112;16.280;2022-09-09T16:32:57;3.92;;;1.27;;
54787;SDS011;59598;48.112;16.280;2022-09-09T16:35:31;1.10;;;1.10;;
54787;SDS011;59598;48.112;16.280;2022-09-09T16:38:09;3.22;;;0.95;;
54787;SDS011;59598;48.112;16.280;2022-09-09T16:40:43;0.90;;;0.90;;
54787;SDS011;59598;48.112;16.280;2022-09-09T16:43:15;1.10;;;1.00;;
54787;SDS011;59598;48.112;16.280;2022-09-09T16:45:47;1.58;;;1.27;;
54787;SDS011;59598;48.112;16.280;2022-09-09T16:48:18;2.75;;;1.10;;
54787;SDS011;59598;48.112;16.280;2022-09-09T16:50:50;1.80;;;1.00;;
54787;SDS011;59598;48.112;16.280;2022-09-09T16:53:21;1.42;;;1.20;;
54787;SDS011;59598;48.112;16.280;2022-09-09T16:55:53;1.23;;;0.98;;
54787;SDS011;59598;48.112;16.280;2022-09-09T16:58:24;0.90;;;0.90;;
54787;SDS011;59598;48.112;16.280;2022-09-09T17:00:59;2.70;;;0.85;;
54787;SDS011;59598;48.112;16.280;2022-09-09T17:03:32;1.40;;;1.27;;
54787;SDS011;59598;48.112;16.280;2022-09-09T17:06:10;1.40;;;1.30;;
54787;SDS011;59598;48.112;16.280;2022-09-09T17:08:45;1.80;;;1.05;;
54787;SDS011;59598;48.112;16.280;2022-09-09T17:11:19;1.02;;;1.00;;
54787;SDS011;59598;48.112;16.280;2022-09-09T17:13:54;1.20;;;1.10;;
54787;SDS011;59598;48.112;16.280;2022-09-09T17:16:32;1.55;;;1.20;;
54787;SDS011;59598;48.112;16.280;2022-09-09T17:19:07;2.13;;;1.00;;
54787;SDS011;59598;48.112;16.280;2022-09-09T17:21:47;1.60;;;1.30;;
54787;SDS011;59598;48.112;16.280;2022-09-09T17:24:18;2.22;;;1.33;;
54787;SDS011;59598;48.112;16.280;2022-09-09T17:26:49;1.08;;;0.95;;
54787;SDS011;59598;48.112;16.280;2022-09-09T17:29:26;2.25;;;1.42;;
54787;SDS011;59598;48.112;16.280;2022-09-09T17:32:05;3.40;;;1.60;;
54787;SDS011;59598;48.112;16.280;2022-09-09T17:34:42;1.60;;;1.48;;
54787;SDS011;59598;48.112;16.280;2022-09-09T17:37:20;1.77;;;1.48;;
54787;SDS011;59598;48.112;16.280;2022-09-09T17:39:52;1.48;;;1.38;;
54787;SDS011;59598;48.112;16.280;2022-09-09T17:42:27;1.40;;;1.30;;
54787;SDS011;59598;48.112;16.280;2022-09-09T17:44:58;1.65;;;1.52;;
54787;SDS011;59598;48.112;16.280;2022-09-09T17:47:30;2.30;;;1.52;;
54787;SDS011;59598;48.112;16.280;2022-09-09T17:50:01;1.55;;;1.45;;
54787;SDS011;59598;48.112;16.280;2022-09-09T17:52:33;1.80;;;1.70;;
54787;SDS011;59598;48.112;16.280;2022-09-09T17:55:06;2.22;;;1.50;;
54787;SDS011;59598;48.112;16.280;2022-09-09T17:57:39;1.70;;;1.60;;
54787;SDS011;59598;48.112;16.280;2022-09-09T18:00:11;1.65;;;1.55;;
54787;SDS011;59598;48.112;16.280;2022-09-09T18:02:43;3.03;;;1.70;;
54787;SDS011;59598;48.112;16.280;2022-09-09T18:05:14;1.60;;;1.50;;
54787;SDS011;59598;48.112;16.280;2022-09-09T18:07:46;1.35;;;1.25;;
54787;SDS011;59598;48.112;16.280;2022-09-09T18:12:57;1.58;;;1.45;;
54787;SDS011;59598;48.112;16.280;2022-09-09T18:15:37;1.98;;;1.25;;
54787;SDS011;59598;48.112;16.280;2022-09-09T18:18:12;1.63;;;1.52;;
54787;SDS011;59598;48.112;16.280;2022-09-09T18:20:43;2.20;;;1.30;;
54787;SDS011;59598;48.112;16.280;2022-09-09T18:23:15;1.58;;;1.48;;